sensor_id;sensor_type;location;lat;lon;timestamp;pressure;altitude;pressure_sealevel;temperature;humidity
6132;BME280;3097;42.692;23.278;2023-04-26T00:01:12;94071.78;;;11.21;96.07
6132;BME280;3097;42.692;23.278;2023-04-26T00:03:39;94075.38;;;11.20;96.20
6132;BME280;3097;42.692;23.278;2023-04-26T00:06:04;94068.91;;;11.18;95.94
6132;BME280;3097;42.692;23.278;2023-04-26T00:08:36;94062.16;;;11.12;95.98
6132;BME280;3097;42.692;23.278;2023-04-26T00:11:02;94063.41;;;11.09;95.58
6132;BME280;3097;42.692;23.278;2023-04-26T00:13:27;94021.09;;;10.78;94.52
6132;BME280;3097;42.692;23.278;2023-04-26T00:15:53;94043.19;;;10.96;94.45
6132;BME280;3097;42.692;23.278;2023-04-26T00:18:18;94053.53;;;11.01;94.73
6132;BME280;3097;42.692;23.278;2023-04-26T00:20:44;94029.72;;;10.89;94.70
6132;BME280;3097;42.692;23.278;2023-04-26T00:23:10;94026.00;;;10.80;94.52
6132;BME280;3097;42.692;23.278;2023-04-26T00:25:36;94045.88;;;10.84;94.72
6132;BME280;3097;42.692;23.278;2023-04-26T00:28:02;94042.00;;;10.82;95.89
6132;BME280;3097;42.692;23.278;2023-04-26T00:30:27;94042.00;;;10.82;95.71
6132;BME280;3097;42.692;23.278;2023-04-26T00:32:53;94046.63;;;10.80;95.95
6132;BME280;3097;42.692;23.278;2023-04-26T00:35:18;94040.94;;;10.78;95.91
6132;BME280;3097;42.692;23.278;2023-04-26T00:37:44;94037.22;;;10.69;95.80
6132;BME280;3097;42.692;23.278;2023-04-26T00:40:11;94037.22;;;10.69;95.88
6132;BME280;3097;42.692;23.278;2023-04-26T00:42:39;94039.75;;;10.64;95.98
6132;BME280;3097;42.692;23.278;2023-04-26T00:45:06;94045.13;;;10.62;96.21
6132;BME280;3097;42.692;23.278;2023-04-26T00:47:32;94039.38;;;10.55;96.10
6132;BME280;3097;42.692;23.278;2023-04-26T00:49:58;94048.31;;;10.47;96.37
6132;BME280;3097;42.692;23.278;2023-04-26T00:52:26;94049.34;;;10.46;96.37
6132;BME280;3097;42.692;23.278;2023-04-26T00:54:52;94031.44;;;10.35;96.39
6132;BME280;3097;42.692;23.278;2023-04-26T00:57:18;94038.44;;;10.39;96.42
6132;BME280;3097;42.692;23.278;2023-04-26T00:59:43;94009.31;;;10.17;96.69
6132;BME280;3097;42.692;23.278;2023-04-26T01:02:09;94030.91;;;10.33;96.55
6132;BME280;3097;42.692;23.278;2023-04-26T01:04:34;94042.03;;;10.38;96.42
6132;BME280;3097;42.692;23.278;2023-04-26T01:07:01;93989.25;;;9.97;95.76
6132;BME280;3097;42.692;23.278;2023-04-26T01:09:28;94049.72;;;10.33;95.90
6132;BME280;3097;42.692;23.278;2023-04-26T01:11:55;94051.69;;;10.26;95.68
6132;BME280;3097;42.692;23.278;2023-04-26T01:14:23;94042.41;;;10.08;95.92
6132;BME280;3097;42.692;23.278;2023-04-26T01:16:48;94054.03;;;10.11;96.21
6132;BME280;3097;42.692;23.278;2023-04-26T01:19:14;94048.88;;;10.11;96.37
6132;BME280;3097;42.692;23.278;2023-04-26T01:21:41;94038.44;;;10.01;96.51
6132;BME280;3097;42.692;23.278;2023-04-26T01:24:11;94040.09;;;10.07;96.49
6132;BME280;3097;42.692;23.278;2023-04-26T01:26:40;94033.84;;;10.03;96.44
6132;BME280;3097;42.692;23.278;2023-04-26T01:29:18;94036.59;;;9.96;96.40
6132;BME280;3097;42.692;23.278;2023-04-26T01:31:45;94040.72;;;9.97;96.55
6132;BME280;3097;42.692;23.278;2023-04-26T01:34:11;94046.50;;;9.88;97.06
6132;BME280;3097;42.692;23.278;2023-04-26T01:36:37;94010.50;;;9.71;96.71
6132;BME280;3097;42.692;23.278;2023-04-26T01:39:02;94043.72;;;9.89;97.13
6132;BME280;3097;42.692;23.278;2023-04-26T01:41:28;94044.50;;;9.90;97.19
6132;BME280;3097;42.692;23.278;2023-04-26T01:43:54;94045.72;;;9.87;97.20
6132;BME280;3097;42.692;23.278;2023-04-26T01:46:20;94054.22;;;9.88;97.20
6132;BME280;3097;42.692;23.278;2023-04-26T01:48:45;94053.16;;;9.84;96.97
6132;BME280;3097;42.692;23.278;2023-04-26T01:51:11;94059.31;;;9.83;97.34
6132;BME280;3097;42.692;23.278;2023-04-26T01:53:37;94044.66;;;9.83;98.03
6132;BME280;3097;42.692;23.278;2023-04-26T01:56:03;94047.28;;;9.88;98.03
6132;BME280;3097;42.692;23.278;2023-04-26T01:58:30;94043.94;;;9.88;97.99
6132;BME280;3097;42.692;23.278;2023-04-26T02:01:03;94034.66;;;9.87;97.53
6132;BME280;3097;42.692;23.278;2023-04-26T02:03:29;94031.56;;;9.85;97.38
6132;BME280;3097;42.692;23.278;2023-04-26T02:05:55;93970.91;;;9.55;97.67
6132;BME280;3097;42.692;23.278;2023-04-26T02:08:20;94021.56;;;9.88;97.53
6132;BME280;3097;42.692;23.278;2023-04-26T02:10:46;94023.91;;;9.90;97.45
6132;BME280;3097;42.692;23.278;2023-04-26T02:13:11;94030.84;;;9.89;97.51
6132;BME280;3097;42.692;23.278;2023-04-26T02:15:37;94034.75;;;9.92;97.29
6132;BME280;3097;42.692;23.278;2023-04-26T02:18:02;94018.75;;;9.90;97.58
6132;BME280;3097;42.692;23.278;2023-04-26T02:20:28;94014.38;;;9.90;96.81
6132;BME280;3097;42.692;23.278;2023-04-26T02:22:53;93988.28;;;9.65;96.52
6132;BME280;3097;42.692;23.278;2023-04-26T02:25:19;94019.09;;;9.77;96.77
6132;BME280;3097;42.692;23.278;2023-04-26T02:27:44;94016.75;;;9.75;96.85
6132;BME280;3097;42.692;23.278;2023-04-26T02:30:10;94020.63;;;9.78;97.14
6132;BME280;3097;42.692;23.278;2023-04-26T02:32:36;94013.94;;;9.77;97.41
6132;BME280;3097;42.692;23.278;2023-04-26T02:35:01;94024.75;;;9.79;97.50
6132;BME280;3097;42.692;23.278;2023-04-26T02:37:26;94026.81;;;9.77;97.53
6132;BME280;3097;42.692;23.278;2023-04-26T02:39:52;94030.69;;;9.79;98.22
6132;BME280;3097;42.692;23.278;2023-04-26T02:42:17;94027.41;;;9.84;98.38
6132;BME280;3097;42.692;23.278;2023-04-26T02:44:43;94011.84;;;9.74;98.74
6132;BME280;3097;42.692;23.278;2023-04-26T02:47:09;94003.34;;;9.73;98.86
6132;BME280;3097;42.692;23.278;2023-04-26T02:49:35;94014.16;;;9.92;98.80
6132;BME280;3097;42.692;23.278;2023-04-26T02:52:00;94001.75;;;9.89;98.75
6132;BME280;3097;42.692;23.278;2023-04-26T02:54:26;94015.28;;;10.01;98.21
6132;BME280;3097;42.692;23.278;2023-04-26T02:56:51;94006.53;;;10.02;97.88
6132;BME280;3097;42.692;23.278;2023-04-26T02:59:16;93999.44;;;9.92;97.55
6132;BME280;3097;42.692;23.278;2023-04-26T03:01:42;94011.13;;;10.00;97.61
6132;BME280;3097;42.692;23.278;2023-04-26T03:04:07;94011.69;;;10.02;97.97
6132;BME280;3097;42.692;23.278;2023-04-26T03:06:33;94012.53;;;10.07;97.94
6132;BME280;3097;42.692;23.278;2023-04-26T03:08:59;94006.13;;;10.10;98.21
6132;BME280;3097;42.692;23.278;2023-04-26T03:11:24;94007.22;;;10.14;97.83
6132;BME280;3097;42.692;23.278;2023-04-26T03:13:50;94005.75;;;10.18;97.54
6132;BME280;3097;42.692;23.278;2023-04-26T03:16:18;93978.63;;;9.94;97.52
6132;BME280;3097;42.692;23.278;2023-04-26T03:18:43;94006.97;;;10.16;97.66
6132;BME280;3097;42.692;23.278;2023-04-26T03:21:08;94005.44;;;10.15;97.28
6132;BME280;3097;42.692;23.278;2023-04-26T03:23:34;94004.38;;;10.16;97.34
6132;BME280;3097;42.692;23.278;2023-04-26T03:25:59;94010.25;;;10.11;96.91
6132;BME280;3097;42.692;23.278;2023-04-26T03:28:25;94004.50;;;10.04;96.87
6132;BME280;3097;42.692;23.278;2023-04-26T03:30:50;94002.94;;;10.03;97.50
6132;BME280;3097;42.692;23.278;2023-04-26T03:33:16;94009.44;;;10.05;97.97
6132;BME280;3097;42.692;23.278;2023-04-26T03:35:42;94002.78;;;10.09;98.23
6132;BME280;3097;42.692;23.278;2023-04-26T03:38:07;94004.66;;;10.14;98.15
6132;BME280;3097;42.692;23.278;2023-04-26T03:40:33;93986.44;;;9.99;97.84
6132;BME280;3097;42.692;23.278;2023-04-26T03:42:58;94003.38;;;10.17;97.22
6132;BME280;3097;42.692;23.278;2023-04-26T03:45:24;94024.06;;;10.22;96.94
6132;BME280;3097;42.692;23.278;2023-04-26T03:47:50;94019.44;;;10.24;97.09
6132;BME280;3097;42.692;23.278;2023-04-26T03:50:16;94028.72;;;10.25;96.63
6132;BME280;3097;42.692;23.278;2023-04-26T03:52:42;94028.50;;;10.26;97.04
6132;BME280;3097;42.692;23.278;2023-04-26T03:55:07;94025.97;;;10.31;97.37
6132;BME280;3097;42.692;23.278;2023-04-26T03:57:37;94038.44;;;10.39;97.39
6132;BME280;3097;42.692;23.278;2023-04-26T04:00:03;94032.81;;;10.42;97.10
6132;BME280;3097;42.692;23.278;2023-04-26T04:02:39;94038.44;;;10.39;97.03
6132;BME280;3097;42.692;23.278;2023-04-26T04:05:05;94039.34;;;10.50;97.14
6132;BME280;3097;42.692;23.278;2023-04-26T04:07:31;94037.59;;;10.56;96.88
6132;BME280;3097;42.692;23.278;2023-04-26T04:09:59;94033.97;;;10.52;96.54
6132;BME280;3097;42.692;23.278;2023-04-26T04:12:26;94045.22;;;10.67;96.78
6132;BME280;3097;42.692;23.278;2023-04-26T04:14:51;94040.38;;;10.76;96.60
6132;BME280;3097;42.692;23.278;2023-04-26T04:17:17;94024.09;;;10.70;96.35
6132;BME280;3097;42.692;23.278;2023-04-26T04:19:43;94042.59;;;10.89;95.81
6132;BME280;3097;42.692;23.278;2023-04-26T04:22:09;94009.72;;;10.74;96.00
6132;BME280;3097;42.692;23.278;2023-04-26T04:24:35;94036.75;;;10.99;96.55
6132;BME280;3097;42.692;23.278;2023-04-26T04:27:02;94051.06;;;11.11;96.13
6132;BME280;3097;42.692;23.278;2023-04-26T04:29:28;94048.06;;;11.24;96.14
6132;BME280;3097;42.692;23.278;2023-04-26T04:31:53;94048.16;;;11.35;96.44
6132;BME280;3097;42.692;23.278;2023-04-26T04:34:18;94049.09;;;11.55;95.96
6132;BME280;3097;42.692;23.278;2023-04-26T04:36:44;94049.75;;;11.73;94.48
6132;BME280;3097;42.692;23.278;2023-04-26T04:39:09;94043.88;;;11.82;93.54
6132;BME280;3097;42.692;23.278;2023-04-26T04:41:43;94055.38;;;12.01;93.35
6132;BME280;3097;42.692;23.278;2023-04-26T04:44:13;94051.41;;;12.41;92.11
6132;BME280;3097;42.692;23.278;2023-04-26T04:46:40;94050.22;;;12.64;89.84
6132;BME280;3097;42.692;23.278;2023-04-26T04:49:05;94053.38;;;12.81;89.98
6132;BME280;3097;42.692;23.278;2023-04-26T04:51:33;94056.81;;;13.12;88.43
6132;BME280;3097;42.692;23.278;2023-04-26T04:54:08;94054.00;;;13.24;87.17
6132;BME280;3097;42.692;23.278;2023-04-26T04:56:36;94057.66;;;13.28;86.92
6132;BME280;3097;42.692;23.278;2023-04-26T04:59:02;94053.75;;;13.25;86.06
6132;BME280;3097;42.692;23.278;2023-04-26T05:01:30;94028.13;;;13.13;86.90
6132;BME280;3097;42.692;23.278;2023-04-26T05:03:58;94043.94;;;13.27;87.46
6132;BME280;3097;42.692;23.278;2023-04-26T05:06:24;94053.50;;;13.42;87.18
6132;BME280;3097;42.692;23.278;2023-04-26T05:08:50;94017.53;;;13.30;86.12
6132;BME280;3097;42.692;23.278;2023-04-26T05:11:15;94053.53;;;13.57;84.41
6132;BME280;3097;42.692;23.278;2023-04-26T05:13:41;94036.19;;;13.52;84.72
6132;BME280;3097;42.692;23.278;2023-04-26T05:16:06;94053.78;;;13.61;84.70
6132;BME280;3097;42.692;23.278;2023-04-26T05:18:32;94055.34;;;13.67;85.28
6132;BME280;3097;42.692;23.278;2023-04-26T05:20:57;94055.06;;;13.78;84.35
6132;BME280;3097;42.692;23.278;2023-04-26T05:23:23;94051.44;;;13.89;84.14
6132;BME280;3097;42.692;23.278;2023-04-26T05:25:48;94058.41;;;13.94;83.48
6132;BME280;3097;42.692;23.278;2023-04-26T05:28:15;94058.66;;;14.03;82.60
6132;BME280;3097;42.692;23.278;2023-04-26T05:30:40;94060.19;;;14.09;82.09
6132;BME280;3097;42.692;23.278;2023-04-26T05:33:06;94056.81;;;14.18;83.71
6132;BME280;3097;42.692;23.278;2023-04-26T05:35:32;94059.88;;;14.51;83.34
6132;BME280;3097;42.692;23.278;2023-04-26T05:37:57;94063.22;;;15.05;81.14
6132;BME280;3097;42.692;23.278;2023-04-26T05:40:23;94062.56;;;15.29;79.04
6132;BME280;3097;42.692;23.278;2023-04-26T05:42:52;94048.13;;;15.18;78.87
6132;BME280;3097;42.692;23.278;2023-04-26T05:45:17;94068.78;;;15.33;78.75
6132;BME280;3097;42.692;23.278;2023-04-26T05:47:43;94074.78;;;15.28;78.55
6132;BME280;3097;42.692;23.278;2023-04-26T05:50:08;94077.63;;;15.32;77.55
6132;BME280;3097;42.692;23.278;2023-04-26T05:52:34;94054.97;;;14.98;78.70
6132;BME280;3097;42.692;23.278;2023-04-26T05:54:59;94079.00;;;15.14;79.58
6132;BME280;3097;42.692;23.278;2023-04-26T05:57:28;94073.53;;;15.21;79.02
6132;BME280;3097;42.692;23.278;2023-04-26T05:59:53;94069.47;;;15.48;78.32
6132;BME280;3097;42.692;23.278;2023-04-26T06:02:19;94079.94;;;15.72;76.99
6132;BME280;3097;42.692;23.278;2023-04-26T06:04:44;94084.22;;;15.92;76.73
6132;BME280;3097;42.692;23.278;2023-04-26T06:07:10;94087.22;;;16.04;76.16
6132;BME280;3097;42.692;23.278;2023-04-26T06:09:36;94071.41;;;16.01;75.47
6132;BME280;3097;42.692;23.278;2023-04-26T06:12:01;94057.75;;;15.85;73.83
6132;BME280;3097;42.692;23.278;2023-04-26T06:14:28;94083.16;;;15.93;74.10
6132;BME280;3097;42.692;23.278;2023-04-26T06:16:54;94086.63;;;16.12;76.07
6132;BME280;3097;42.692;23.278;2023-04-26T06:19:20;94089.53;;;16.58;73.34
6132;BME280;3097;42.692;23.278;2023-04-26T06:21:45;94092.66;;;16.60;68.65
6132;BME280;3097;42.692;23.278;2023-04-26T06:24:11;94009.50;;;15.74;71.00
6132;BME280;3097;42.692;23.278;2023-04-26T06:26:36;94088.22;;;16.32;73.68
6132;BME280;3097;42.692;23.278;2023-04-26T06:29:01;94093.00;;;16.49;70.33
6132;BME280;3097;42.692;23.278;2023-04-26T06:31:27;94094.00;;;16.29;66.65
6132;BME280;3097;42.692;23.278;2023-04-26T06:33:53;94102.78;;;15.75;68.17
6132;BME280;3097;42.692;23.278;2023-04-26T06:36:18;94095.25;;;15.35;69.70
6132;BME280;3097;42.692;23.278;2023-04-26T06:38:44;94100.00;;;15.23;71.81
6132;BME280;3097;42.692;23.278;2023-04-26T06:41:10;94094.97;;;14.92;70.01
6132;BME280;3097;42.692;23.278;2023-04-26T06:43:35;94103.94;;;14.46;71.39
6132;BME280;3097;42.692;23.278;2023-04-26T06:46:01;94103.47;;;14.18;71.69
6132;BME280;3097;42.692;23.278;2023-04-26T06:48:26;94106.06;;;13.93;75.03
6132;BME280;3097;42.692;23.278;2023-04-26T06:50:52;94110.75;;;13.86;74.65
6132;BME280;3097;42.692;23.278;2023-04-26T06:53:17;94112.03;;;13.93;74.41
6132;BME280;3097;42.692;23.278;2023-04-26T06:55:43;94103.75;;;14.02;75.68
6132;BME280;3097;42.692;23.278;2023-04-26T06:58:09;94094.59;;;14.55;76.98
6132;BME280;3097;42.692;23.278;2023-04-26T07:00:35;94104.16;;;15.24;76.84
6132;BME280;3097;42.692;23.278;2023-04-26T07:03:00;94092.97;;;15.67;74.06
6132;BME280;3097;42.692;23.278;2023-04-26T07:05:26;94098.19;;;16.25;73.70
6132;BME280;3097;42.692;23.278;2023-04-26T07:07:51;94113.88;;;16.73;70.18
6132;BME280;3097;42.692;23.278;2023-04-26T07:10:17;94105.94;;;16.83;69.14
6132;BME280;3097;42.692;23.278;2023-04-26T07:12:43;94085.84;;;17.07;69.10
6132;BME280;3097;42.692;23.278;2023-04-26T07:15:08;94111.56;;;17.51;66.51
6132;BME280;3097;42.692;23.278;2023-04-26T07:17:34;94111.56;;;17.70;63.32
6132;BME280;3097;42.692;23.278;2023-04-26T07:20:00;94106.84;;;17.72;65.04
6132;BME280;3097;42.692;23.278;2023-04-26T07:22:25;94090.63;;;17.56;63.75
6132;BME280;3097;42.692;23.278;2023-04-26T07:24:50;94105.88;;;17.68;64.05
6132;BME280;3097;42.692;23.278;2023-04-26T07:27:16;94119.28;;;17.37;60.34
6132;BME280;3097;42.692;23.278;2023-04-26T07:29:41;94120.63;;;17.16;62.84
6132;BME280;3097;42.692;23.278;2023-04-26T07:32:07;94103.16;;;16.98;61.95
6132;BME280;3097;42.692;23.278;2023-04-26T07:34:32;94120.06;;;16.77;62.82
6132;BME280;3097;42.692;23.278;2023-04-26T07:36:58;94122.34;;;16.31;62.31
6132;BME280;3097;42.692;23.278;2023-04-26T07:39:23;94121.97;;;16.13;65.19
6132;BME280;3097;42.692;23.278;2023-04-26T07:41:49;94124.72;;;15.98;62.61
6132;BME280;3097;42.692;23.278;2023-04-26T07:44:15;94133.41;;;15.83;65.17
6132;BME280;3097;42.692;23.278;2023-04-26T07:46:40;94125.75;;;15.63;63.39
6132;BME280;3097;42.692;23.278;2023-04-26T07:49:06;94142.09;;;15.64;62.94
6132;BME280;3097;42.692;23.278;2023-04-26T07:51:34;94107.34;;;15.49;63.88
6132;BME280;3097;42.692;23.278;2023-04-26T07:54:00;94142.38;;;15.62;63.37
6132;BME280;3097;42.692;23.278;2023-04-26T07:56:26;94091.84;;;14.90;62.51
6132;BME280;3097;42.692;23.278;2023-04-26T07:58:51;94087.00;;;14.68;66.20
6132;BME280;3097;42.692;23.278;2023-04-26T08:01:17;94144.72;;;15.04;65.48
6132;BME280;3097;42.692;23.278;2023-04-26T08:03:42;94151.00;;;14.93;64.19
6132;BME280;3097;42.692;23.278;2023-04-26T08:06:08;94142.81;;;14.61;66.12
6132;BME280;3097;42.692;23.278;2023-04-26T08:08:34;94139.72;;;14.49;65.74
6132;BME280;3097;42.692;23.278;2023-04-26T08:11:07;94143.13;;;13.83;65.87
6132;BME280;3097;42.692;23.278;2023-04-26T08:13:34;94140.28;;;13.65;67.53
6132;BME280;3097;42.692;23.278;2023-04-26T08:15:59;94144.94;;;13.88;68.85
6132;BME280;3097;42.692;23.278;2023-04-26T08:18:25;94138.44;;;14.21;69.96
6132;BME280;3097;42.692;23.278;2023-04-26T08:20:50;94094.16;;;14.02;67.90
6132;BME280;3097;42.692;23.278;2023-04-26T08:23:16;94143.38;;;14.32;66.95
6132;BME280;3097;42.692;23.278;2023-04-26T08:25:43;94135.59;;;14.32;68.39
6132;BME280;3097;42.692;23.278;2023-04-26T08:28:09;94142.31;;;14.54;68.55
6132;BME280;3097;42.692;23.278;2023-04-26T08:30:39;94126.22;;;14.37;66.48
6132;BME280;3097;42.692;23.278;2023-04-26T08:33:04;94141.28;;;14.50;66.49
6132;BME280;3097;42.692;23.278;2023-04-26T08:35:30;94140.25;;;14.36;66.75
6132;BME280;3097;42.692;23.278;2023-04-26T08:37:56;94135.84;;;14.21;66.81
6132;BME280;3097;42.692;23.278;2023-04-26T08:40:23;94097.78;;;13.91;68.62
6132;BME280;3097;42.692;23.278;2023-04-26T08:42:49;94105.03;;;14.04;68.42
6132;BME280;3097;42.692;23.278;2023-04-26T08:45:16;94129.88;;;14.56;69.82
6132;BME280;3097;42.692;23.278;2023-04-26T08:47:44;94141.44;;;14.84;66.04
6132;BME280;3097;42.692;23.278;2023-04-26T08:50:12;94128.44;;;14.94;65.01
6132;BME280;3097;42.692;23.278;2023-04-26T08:52:39;94127.34;;;15.05;65.60
6132;BME280;3097;42.692;23.278;2023-04-26T08:55:06;94129.00;;;15.35;65.45
6132;BME280;3097;42.692;23.278;2023-04-26T08:57:34;94132.16;;;15.27;62.69
6132;BME280;3097;42.692;23.278;2023-04-26T09:00:03;94133.38;;;14.95;63.89
6132;BME280;3097;42.692;23.278;2023-04-26T09:02:39;94107.47;;;14.75;65.65
6132;BME280;3097;42.692;23.278;2023-04-26T09:05:06;94139.03;;;14.97;64.21
6132;BME280;3097;42.692;23.278;2023-04-26T09:07:34;94147.31;;;15.04;65.88
6132;BME280;3097;42.692;23.278;2023-04-26T09:10:03;94144.56;;;14.86;63.82
6132;BME280;3097;42.692;23.278;2023-04-26T09:12:30;94139.63;;;14.84;66.37
6132;BME280;3097;42.692;23.278;2023-04-26T09:14:55;94151.59;;;14.80;64.32
6132;BME280;3097;42.692;23.278;2023-04-26T09:17:39;94145.84;;;14.88;65.24
6132;BME280;3097;42.692;23.278;2023-04-26T09:20:27;94151.06;;;14.78;63.61
6132;BME280;3097;42.692;23.278;2023-04-26T09:23:04;94153.69;;;14.73;64.06
6132;BME280;3097;42.692;23.278;2023-04-26T09:25:31;94146.41;;;14.80;64.37
6132;BME280;3097;42.692;23.278;2023-04-26T09:27:57;94152.13;;;14.67;65.27
6132;BME280;3097;42.692;23.278;2023-04-26T09:30:23;94149.25;;;14.79;63.81
6132;BME280;3097;42.692;23.278;2023-04-26T09:33:01;94143.25;;;14.83;64.50
6132;BME280;3097;42.692;23.278;2023-04-26T09:35:35;94147.31;;;15.09;63.92
6132;BME280;3097;42.692;23.278;2023-04-26T09:40:48;94136.38;;;15.18;61.55
6132;BME280;3097;42.692;23.278;2023-04-26T09:43:15;94139.53;;;15.09;63.35
6132;BME280;3097;42.692;23.278;2023-04-26T09:45:54;94140.72;;;15.32;64.19
6132;BME280;3097;42.692;23.278;2023-04-26T09:48:28;94140.84;;;15.51;61.27
6132;BME280;3097;42.692;23.278;2023-04-26T09:50:58;94134.41;;;15.43;61.61
6132;BME280;3097;42.692;23.278;2023-04-26T09:53:32;94125.63;;;15.34;62.69
6132;BME280;3097;42.692;23.278;2023-04-26T09:56:19;94134.19;;;15.35;62.05
6132;BME280;3097;42.692;23.278;2023-04-26T10:01:13;94137.75;;;15.49;59.39
6132;BME280;3097;42.692;23.278;2023-04-26T10:03:39;94129.94;;;15.59;60.12
6132;BME280;3097;42.692;23.278;2023-04-26T10:06:06;94128.34;;;15.63;60.95
6132;BME280;3097;42.692;23.278;2023-04-26T10:08:31;94130.03;;;15.83;60.81
6132;BME280;3097;42.692;23.278;2023-04-26T10:10:58;94135.47;;;15.81;57.34
6132;BME280;3097;42.692;23.278;2023-04-26T10:13:24;94105.00;;;15.58;57.85
6132;BME280;3097;42.692;23.278;2023-04-26T10:15:51;94112.41;;;15.75;58.63
6132;BME280;3097;42.692;23.278;2023-04-26T10:18:16;94131.25;;;15.91;59.60
6132;BME280;3097;42.692;23.278;2023-04-26T10:20:44;94140.16;;;15.84;55.81
6132;BME280;3097;42.692;23.278;2023-04-26T10:23:18;94120.13;;;15.46;58.26
6132;BME280;3097;42.692;23.278;2023-04-26T10:25:45;94130.91;;;15.68;57.66
6132;BME280;3097;42.692;23.278;2023-04-26T10:28:11;94125.53;;;15.49;59.13
6132;BME280;3097;42.692;23.278;2023-04-26T10:31:09;94131.84;;;15.38;56.20
6132;BME280;3097;42.692;23.278;2023-04-26T10:33:34;94103.91;;;15.20;57.85
6132;BME280;3097;42.692;23.278;2023-04-26T10:38:28;94132.63;;;15.34;57.36
6132;BME280;3097;42.692;23.278;2023-04-26T10:40:54;94123.31;;;15.33;59.04
6132;BME280;3097;42.692;23.278;2023-04-26T10:43:27;94122.66;;;15.61;59.49
6132;BME280;3097;42.692;23.278;2023-04-26T10:45:53;94124.81;;;15.83;58.22
6132;BME280;3097;42.692;23.278;2023-04-26T10:48:27;94116.84;;;16.03;57.50
6132;BME280;3097;42.692;23.278;2023-04-26T10:58:47;94119.03;;;15.91;54.23
6132;BME280;3097;42.692;23.278;2023-04-26T11:01:19;94121.44;;;15.82;53.83
6132;BME280;3097;42.692;23.278;2023-04-26T11:06:30;94115.66;;;15.52;56.81
6132;BME280;3097;42.692;23.278;2023-04-26T11:09:36;94021.09;;;14.80;55.58
6132;BME280;3097;42.692;23.278;2023-04-26T11:12:04;94098.41;;;15.27;56.71
6132;BME280;3097;42.692;23.278;2023-04-26T11:14:32;94114.63;;;15.53;54.80
6132;BME280;3097;42.692;23.278;2023-04-26T11:16:57;94118.97;;;15.67;55.08
6132;BME280;3097;42.692;23.278;2023-04-26T11:19:22;94116.19;;;15.93;56.41
6132;BME280;3097;42.692;23.278;2023-04-26T11:21:48;94109.06;;;16.03;54.32
6132;BME280;3097;42.692;23.278;2023-04-26T11:24:14;94098.13;;;15.72;53.24
6132;BME280;3097;42.692;23.278;2023-04-26T11:26:40;94119.03;;;15.57;53.60
6132;BME280;3097;42.692;23.278;2023-04-26T11:29:08;94123.22;;;15.53;53.51
6132;BME280;3097;42.692;23.278;2023-04-26T11:31:37;94129.78;;;15.35;52.43
6132;BME280;3097;42.692;23.278;2023-04-26T11:34:03;94127.00;;;15.22;53.48
6132;BME280;3097;42.692;23.278;2023-04-26T11:36:29;94099.81;;;15.09;53.37
6132;BME280;3097;42.692;23.278;2023-04-26T11:38:56;94123.78;;;15.40;52.23
6132;BME280;3097;42.692;23.278;2023-04-26T11:41:22;94131.66;;;15.25;52.70
6132;BME280;3097;42.692;23.278;2023-04-26T11:43:48;94127.47;;;15.29;54.05
6132;BME280;3097;42.692;23.278;2023-04-26T11:46:14;94087.78;;;15.23;53.98
6132;BME280;3097;42.692;23.278;2023-04-26T11:48:40;94115.38;;;15.58;52.29
6132;BME280;3097;42.692;23.278;2023-04-26T11:51:07;94116.31;;;15.72;51.71
6132;BME280;3097;42.692;23.278;2023-04-26T11:53:36;94120.97;;;15.75;50.85
6132;BME280;3097;42.692;23.278;2023-04-26T11:56:04;94120.50;;;15.68;52.80
6132;BME280;3097;42.692;23.278;2023-04-26T11:58:29;94120.25;;;15.70;51.51
6132;BME280;3097;42.692;23.278;2023-04-26T12:00:59;94124.19;;;15.62;50.98
6132;BME280;3097;42.692;23.278;2023-04-26T12:03:32;94112.81;;;15.53;52.00
6132;BME280;3097;42.692;23.278;2023-04-26T12:06:04;94066.66;;;15.40;53.87
6132;BME280;3097;42.692;23.278;2023-04-26T12:08:31;94118.59;;;15.84;52.72
6132;BME280;3097;42.692;23.278;2023-04-26T12:11:01;94116.25;;;15.82;52.02
6132;BME280;3097;42.692;23.278;2023-04-26T12:13:27;94124.03;;;15.82;52.72
6132;BME280;3097;42.692;23.278;2023-04-26T12:15:53;94113.59;;;15.87;52.16
6132;BME280;3097;42.692;23.278;2023-04-26T12:18:19;94116.13;;;15.98;53.02
6132;BME280;3097;42.692;23.278;2023-04-26T12:20:44;94114.09;;;15.90;50.75
6132;BME280;3097;42.692;23.278;2023-04-26T12:23:14;94113.50;;;15.69;51.14
6132;BME280;3097;42.692;23.278;2023-04-26T12:25:50;94108.31;;;15.69;51.17
6132;BME280;3097;42.692;23.278;2023-04-26T12:28:15;94108.03;;;15.70;52.99
6132;BME280;3097;42.692;23.278;2023-04-26T12:30:41;94115.00;;;15.75;52.79
6132;BME280;3097;42.692;23.278;2023-04-26T12:33:06;94113.19;;;15.75;51.73
6132;BME280;3097;42.692;23.278;2023-04-26T12:35:33;94114.19;;;15.79;52.46
6132;BME280;3097;42.692;23.278;2023-04-26T12:37:58;94107.41;;;15.83;51.94
6132;BME280;3097;42.692;23.278;2023-04-26T12:40:28;94113.59;;;15.87;50.95
6132;BME280;3097;42.692;23.278;2023-04-26T12:42:55;94104.88;;;15.73;51.13
6132;BME280;3097;42.692;23.278;2023-04-26T12:45:24;94110.19;;;15.58;52.82
6132;BME280;3097;42.692;23.278;2023-04-26T12:47:53;94100.84;;;15.52;52.74
6132;BME280;3097;42.692;23.278;2023-04-26T12:50:18;94052.78;;;15.16;52.73
6132;BME280;3097;42.692;23.278;2023-04-26T12:52:44;94084.47;;;15.18;50.50
6132;BME280;3097;42.692;23.278;2023-04-26T12:55:11;94116.88;;;15.25;50.65
6132;BME280;3097;42.692;23.278;2023-04-26T12:57:38;94112.03;;;15.08;50.74
6132;BME280;3097;42.692;23.278;2023-04-26T13:00:05;94086.91;;;14.89;52.21
6132;BME280;3097;42.692;23.278;2023-04-26T13:02:31;94124.47;;;15.06;53.77
6132;BME280;3097;42.692;23.278;2023-04-26T13:04:57;94080.53;;;14.71;54.04
6132;BME280;3097;42.692;23.278;2023-04-26T13:07:24;94123.31;;;14.79;54.49
6132;BME280;3097;42.692;23.278;2023-04-26T13:09:50;94129.59;;;14.57;55.38
6132;BME280;3097;42.692;23.278;2023-04-26T13:12:15;94121.00;;;14.67;55.26
6132;BME280;3097;42.692;23.278;2023-04-26T13:14:40;94030.38;;;14.16;57.11
6132;BME280;3097;42.692;23.278;2023-04-26T13:17:06;94127.69;;;14.88;56.22
6132;BME280;3097;42.692;23.278;2023-04-26T13:19:34;94128.44;;;14.89;55.27
6132;BME280;3097;42.692;23.278;2023-04-26T13:22:01;94107.47;;;14.75;53.86
6132;BME280;3097;42.692;23.278;2023-04-26T13:24:27;94137.03;;;14.84;54.40
6132;BME280;3097;42.692;23.278;2023-04-26T13:26:53;94139.09;;;14.82;54.72
6132;BME280;3097;42.692;23.278;2023-04-26T13:29:18;94146.63;;;14.84;54.98